YMAV/AVV METAR and TAF weather

Enter ICAO airport designator
Station Type Date Time Source
YMAV METAR 2020/09/22 19:07 UTC NOAA

YMAV 221907Z AUTO 31016G26KT 9999 // SCT010 SCT018 SCT027 10/08 Q1009


Station Type Date Time Source
YMAV Decoded METAR 2020/09/22 19:07 UTC NOAA

Avalon, Avalon Airport, Australia (YMAV) 38-02S 144-29E
Sep 22, 2020 - 03:07 PM EDT / 2020.09.22 1907 UTC
Wind: from the NW (310 degrees) at 18 MPH (16 KT) gusting to 30 MPH (26 KT):0
Visibility: greater than 7 mile(s):0
Sky conditions: partly cloudy
Temperature: 50 F (10 C)
Dew Point: 46 F (8 C)
Relative Humidity: 87%
Pressure (altimeter): 29.80 in. Hg (1009 hPa)
ob: YMAV 221907Z AUTO 31016G26KT 9999 // SCT010 SCT018 SCT027 10/08 Q1009
cycle: 19

Station Type Date Time Source
YMAV TAF 2020/09/22 16:12 UTC NOAA

TAF TAF
AMD YMAV 221608Z 2216/2318 30015G25KT 9999 BKN035
FM222100 27014KT 9999 -SHRA BKN025
FM230300 26018G28KT 9999 NSW SCT040
BECMG 2308/2310 29010KT 9999 SCT035 INTER 2221/2303 4000 SHRA BKN015

Example: see airport list